sensor_id;sensor_type;location;lat;lon;timestamp;pressure;altitude;pressure_sealevel;temperature;humidity
50125;BME280;36023;48.670;6.184;2022-07-18T00:00:33;99694.75;;;26.79;24.57
50125;BME280;36023;48.670;6.184;2022-07-18T00:02:59;99689.44;;;26.79;24.64
50125;BME280;36023;48.670;6.184;2022-07-18T00:05:24;99690.41;;;26.78;24.60
50125;BME280;36023;48.670;6.184;2022-07-18T00:07:50;99693.06;;;26.78;24.61
50125;BME280;36023;48.670;6.184;2022-07-18T00:10:16;99691.25;;;26.78;24.59
50125;BME280;36023;48.670;6.184;2022-07-18T00:12:41;99686.03;;;26.77;24.63
50125;BME280;36023;48.670;6.184;2022-07-18T00:15:07;99683.50;;;26.75;24.47
50125;BME280;36023;48.670;6.184;2022-07-18T00:17:35;99691.59;;;26.74;24.68
50125;BME280;36023;48.670;6.184;2022-07-18T00:20:03;99684.47;;;26.74;24.65
50125;BME280;36023;48.670;6.184;2022-07-18T00:22:29;99688.94;;;26.74;24.52
50125;BME280;36023;48.670;6.184;2022-07-18T00:24:55;99681.09;;;26.72;24.61
50125;BME280;36023;48.670;6.184;2022-07-18T00:27:20;99684.59;;;26.73;24.65
50125;BME280;36023;48.670;6.184;2022-07-18T00:29:46;99683.63;;;26.74;24.59
50125;BME280;36023;48.670;6.184;2022-07-18T00:32:12;99681.09;;;26.72;24.66
50125;BME280;36023;48.670;6.184;2022-07-18T00:34:37;99678.56;;;26.71;24.67
50125;BME280;36023;48.670;6.184;2022-07-18T00:37:04;99682.19;;;26.70;24.57
50125;BME280;36023;48.670;6.184;2022-07-18T00:39:30;99679.53;;;26.70;24.56
50125;BME280;36023;48.670;6.184;2022-07-18T00:41:55;99681.44;;;26.67;24.66
50125;BME280;36023;48.670;6.184;2022-07-18T00:44:26;99677.94;;;26.67;24.48
50125;BME280;36023;48.670;6.184;2022-07-18T00:46:57;99672.63;;;26.67;24.39
50125;BME280;36023;48.670;6.184;2022-07-18T00:49:24;99671.91;;;26.65;24.64
50125;BME280;36023;48.670;6.184;2022-07-18T00:51:51;99670.94;;;26.66;24.64
50125;BME280;36023;48.670;6.184;2022-07-18T00:54:17;99669.25;;;26.65;24.61
50125;BME280;36023;48.670;6.184;2022-07-18T00:56:44;99679.88;;;26.65;24.60
50125;BME280;36023;48.670;6.184;2022-07-18T00:59:10;99680.72;;;26.65;24.61
50125;BME280;36023;48.670;6.184;2022-07-18T01:01:38;99675.53;;;26.64;24.54
50125;BME280;36023;48.670;6.184;2022-07-18T01:04:20;99672.03;;;26.63;24.69
50125;BME280;36023;48.670;6.184;2022-07-18T01:06:47;99680.97;;;26.62;24.64
50125;BME280;36023;48.670;6.184;2022-07-18T01:09:17;99675.66;;;26.62;24.63
50125;BME280;36023;48.670;6.184;2022-07-18T01:11:45;99680.97;;;26.62;24.68
50125;BME280;36023;48.670;6.184;2022-07-18T01:14:12;99671.19;;;26.63;24.63
50125;BME280;36023;48.670;6.184;2022-07-18T01:16:38;99678.31;;;26.62;24.75
50125;BME280;36023;48.670;6.184;2022-07-18T01:19:04;99676.63;;;26.61;24.74
50125;BME280;36023;48.670;6.184;2022-07-18T01:21:30;99666.94;;;26.60;24.77
50125;BME280;36023;48.670;6.184;2022-07-18T01:23:56;99669.59;;;26.60;24.80
50125;BME280;36023;48.670;6.184;2022-07-18T01:26:22;99669.59;;;26.60;24.95
50125;BME280;36023;48.670;6.184;2022-07-18T01:28:48;99668.75;;;26.60;24.80
50125;BME280;36023;48.670;6.184;2022-07-18T01:31:14;99668.03;;;26.58;24.83
50125;BME280;36023;48.670;6.184;2022-07-18T01:33:40;99661.03;;;26.57;24.81
50125;BME280;36023;48.670;6.184;2022-07-18T01:36:06;99649.69;;;26.55;24.66
50125;BME280;36023;48.670;6.184;2022-07-18T01:38:33;99662.00;;;26.56;24.63
50125;BME280;36023;48.670;6.184;2022-07-18T01:40:59;99667.44;;;26.54;24.66
50125;BME280;36023;48.670;6.184;2022-07-18T01:43:26;99665.72;;;26.53;24.75
50125;BME280;36023;48.670;6.184;2022-07-18T01:45:53;99665.72;;;26.53;24.65
50125;BME280;36023;48.670;6.184;2022-07-18T01:48:19;99660.41;;;26.53;24.53
50125;BME280;36023;48.670;6.184;2022-07-18T01:50:49;99663.19;;;26.52;24.71
50125;BME280;36023;48.670;6.184;2022-07-18T01:53:15;99664.03;;;26.52;24.66
50125;BME280;36023;48.670;6.184;2022-07-18T01:55:41;99662.34;;;26.51;24.52
50125;BME280;36023;48.670;6.184;2022-07-18T01:58:07;99660.66;;;26.50;24.65
50125;BME280;36023;48.670;6.184;2022-07-18T02:00:33;99656.19;;;26.51;24.66
50125;BME280;36023;48.670;6.184;2022-07-18T02:02:58;99653.66;;;26.49;24.84
50125;BME280;36023;48.670;6.184;2022-07-18T02:05:24;99653.53;;;26.51;24.65
50125;BME280;36023;48.670;6.184;2022-07-18T02:07:50;99653.66;;;26.49;24.75
50125;BME280;36023;48.670;6.184;2022-07-18T02:10:18;99653.66;;;26.49;24.67
50125;BME280;36023;48.670;6.184;2022-07-18T02:12:45;99652.81;;;26.49;24.83
50125;BME280;36023;48.670;6.184;2022-07-18T02:15:12;99648.34;;;26.49;25.06
50125;BME280;36023;48.670;6.184;2022-07-18T02:17:39;99651.00;;;26.49;25.07
50125;BME280;36023;48.670;6.184;2022-07-18T02:20:07;99652.81;;;26.49;25.00
50125;BME280;36023;48.670;6.184;2022-07-18T02:22:34;99644.13;;;26.47;24.97
50125;BME280;36023;48.670;6.184;2022-07-18T02:24:59;99642.38;;;26.46;25.05
50125;BME280;36023;48.670;6.184;2022-07-18T02:27:25;99638.03;;;26.45;25.04
50125;BME280;36023;48.670;6.184;2022-07-18T02:29:51;99644.31;;;26.44;24.92
50125;BME280;36023;48.670;6.184;2022-07-18T02:32:17;99644.44;;;26.42;24.94
50125;BME280;36023;48.670;6.184;2022-07-18T02:34:43;99643.59;;;26.42;25.14
50125;BME280;36023;48.670;6.184;2022-07-18T02:37:09;99645.41;;;26.41;25.08
50125;BME280;36023;48.670;6.184;2022-07-18T02:39:36;99644.56;;;26.41;25.00
50125;BME280;36023;48.670;6.184;2022-07-18T02:42:02;99648.06;;;26.41;24.87
50125;BME280;36023;48.670;6.184;2022-07-18T02:44:28;99650.91;;;26.38;25.12
50125;BME280;36023;48.670;6.184;2022-07-18T02:46:56;99652.66;;;26.39;24.94
50125;BME280;36023;48.670;6.184;2022-07-18T02:49:22;99642.94;;;26.38;25.02
50125;BME280;36023;48.670;6.184;2022-07-18T02:54:20;99648.38;;;26.36;25.17
50125;BME280;36023;48.670;6.184;2022-07-18T02:56:46;99639.56;;;26.36;25.08
50125;BME280;36023;48.670;6.184;2022-07-18T02:59:12;99637.88;;;26.35;24.95
50125;BME280;36023;48.670;6.184;2022-07-18T03:01:37;99640.53;;;26.35;25.13
50125;BME280;36023;48.670;6.184;2022-07-18T03:04:03;99634.38;;;26.34;25.02
50125;BME280;36023;48.670;6.184;2022-07-18T03:06:29;99645.84;;;26.35;25.10
50125;BME280;36023;48.670;6.184;2022-07-18T03:08:57;99641.50;;;26.34;25.33
50125;BME280;36023;48.670;6.184;2022-07-18T03:11:22;99637.16;;;26.33;25.11
50125;BME280;36023;48.670;6.184;2022-07-18T03:13:48;99637.16;;;26.33;25.14
50125;BME280;36023;48.670;6.184;2022-07-18T03:16:13;99653.09;;;26.33;25.35
50125;BME280;36023;48.670;6.184;2022-07-18T03:18:39;99642.59;;;26.31;25.15
50125;BME280;36023;48.670;6.184;2022-07-18T03:21:05;99638.25;;;26.30;25.13
50125;BME280;36023;48.670;6.184;2022-07-18T03:23:30;99641.84;;;26.29;25.25
50125;BME280;36023;48.670;6.184;2022-07-18T03:25:56;99644.63;;;26.28;25.02
50125;BME280;36023;48.670;6.184;2022-07-18T03:28:22;99636.66;;;26.28;25.18
50125;BME280;36023;48.670;6.184;2022-07-18T03:30:48;99638.59;;;26.26;25.32
50125;BME280;36023;48.670;6.184;2022-07-18T03:33:13;99635.09;;;26.25;25.22
50125;BME280;36023;48.670;6.184;2022-07-18T03:35:39;99637.88;;;26.24;25.29
50125;BME280;36023;48.670;6.184;2022-07-18T03:38:05;99637.03;;;26.23;25.04
50125;BME280;36023;48.670;6.184;2022-07-18T03:40:31;99638.84;;;26.23;25.16
50125;BME280;36023;48.670;6.184;2022-07-18T03:42:57;99631.81;;;26.22;25.24
50125;BME280;36023;48.670;6.184;2022-07-18T03:45:22;99634.47;;;26.22;25.10
50125;BME280;36023;48.670;6.184;2022-07-18T03:47:48;99637.09;;;26.22;25.09
50125;BME280;36023;48.670;6.184;2022-07-18T03:50:14;99633.63;;;26.21;25.22
50125;BME280;36023;48.670;6.184;2022-07-18T03:52:40;99638.06;;;26.21;25.21
50125;BME280;36023;48.670;6.184;2022-07-18T03:55:08;99639.03;;;26.20;25.29
50125;BME280;36023;48.670;6.184;2022-07-18T03:57:34;99642.53;;;26.20;25.36
50125;BME280;36023;48.670;6.184;2022-07-18T04:00:00;99646.03;;;26.21;25.32
50125;BME280;36023;48.670;6.184;2022-07-18T04:02:25;99637.22;;;26.20;25.46
50125;BME280;36023;48.670;6.184;2022-07-18T04:04:51;99638.19;;;26.19;25.27
50125;BME280;36023;48.670;6.184;2022-07-18T04:07:17;99645.31;;;26.19;25.21
50125;BME280;36023;48.670;6.184;2022-07-18T04:09:43;99641.09;;;26.16;25.28
50125;BME280;36023;48.670;6.184;2022-07-18T04:12:09;99643.75;;;26.16;25.25
50125;BME280;36023;48.670;6.184;2022-07-18T04:14:35;99639.50;;;26.14;25.19
50125;BME280;36023;48.670;6.184;2022-07-18T04:17:00;99643.84;;;26.15;25.22
50125;BME280;36023;48.670;6.184;2022-07-18T04:19:26;99642.16;;;26.14;25.41
50125;BME280;36023;48.670;6.184;2022-07-18T04:21:52;99643.97;;;26.13;25.27
50125;BME280;36023;48.670;6.184;2022-07-18T04:24:17;99646.63;;;26.13;25.26
50125;BME280;36023;48.670;6.184;2022-07-18T04:26:43;99651.94;;;26.13;25.21
50125;BME280;36023;48.670;6.184;2022-07-18T04:29:09;99652.06;;;26.11;25.27
50125;BME280;36023;48.670;6.184;2022-07-18T04:31:34;99646.03;;;26.09;25.42
50125;BME280;36023;48.670;6.184;2022-07-18T04:34:00;99644.94;;;26.12;25.26
50125;BME280;36023;48.670;6.184;2022-07-18T04:36:26;99641.56;;;26.10;25.38
50125;BME280;36023;48.670;6.184;2022-07-18T04:38:52;99646.97;;;26.08;25.55
50125;BME280;36023;48.670;6.184;2022-07-18T04:41:18;99645.28;;;26.07;25.51
50125;BME280;36023;48.670;6.184;2022-07-18T04:43:47;99646.13;;;26.08;25.49
50125;BME280;36023;48.670;6.184;2022-07-18T04:46:15;99645.28;;;26.07;25.62
50125;BME280;36023;48.670;6.184;2022-07-18T04:48:40;99649.63;;;26.08;25.68
50125;BME280;36023;48.670;6.184;2022-07-18T04:51:06;99650.53;;;25.96;25.78
50125;BME280;36023;48.670;6.184;2022-07-18T04:53:32;99645.19;;;25.85;26.05
50125;BME280;36023;48.670;6.184;2022-07-18T04:55:58;99645.66;;;25.79;26.30
50125;BME280;36023;48.670;6.184;2022-07-18T04:58:23;99648.63;;;25.74;26.49
50125;BME280;36023;48.670;6.184;2022-07-18T05:00:49;99648.94;;;25.70;26.59
50125;BME280;36023;48.670;6.184;2022-07-18T05:03:14;99645.34;;;25.71;26.92
50125;BME280;36023;48.670;6.184;2022-07-18T05:05:40;99648.53;;;25.76;27.15
50125;BME280;36023;48.670;6.184;2022-07-18T05:08:06;99643.13;;;25.77;27.06
50125;BME280;36023;48.670;6.184;2022-07-18T05:10:32;99646.50;;;25.79;27.21
50125;BME280;36023;48.670;6.184;2022-07-18T05:12:58;99640.63;;;25.87;27.71
50125;BME280;36023;48.670;6.184;2022-07-18T05:15:25;99646.31;;;25.94;27.82
50125;BME280;36023;48.670;6.184;2022-07-18T05:17:52;99651.25;;;25.98;28.02
50125;BME280;36023;48.670;6.184;2022-07-18T05:20:20;99649.25;;;26.02;28.11
50125;BME280;36023;48.670;6.184;2022-07-18T05:22:47;99644.53;;;26.05;27.96
50125;BME280;36023;48.670;6.184;2022-07-18T05:25:13;99637.09;;;26.10;28.10
50125;BME280;36023;48.670;6.184;2022-07-18T05:27:40;99643.00;;;26.14;28.02
50125;BME280;36023;48.670;6.184;2022-07-18T05:30:07;99638.06;;;26.09;27.59
50125;BME280;36023;48.670;6.184;2022-07-18T05:32:33;99647.09;;;26.07;27.37
50125;BME280;36023;48.670;6.184;2022-07-18T05:34:59;99645.28;;;26.07;27.39
50125;BME280;36023;48.670;6.184;2022-07-18T05:37:24;99647.72;;;26.10;27.26
50125;BME280;36023;48.670;6.184;2022-07-18T05:39:50;99643.97;;;26.13;27.07
50125;BME280;36023;48.670;6.184;2022-07-18T05:42:17;99642.91;;;26.16;26.70
50125;BME280;36023;48.670;6.184;2022-07-18T05:44:43;99637.34;;;26.19;26.80
50125;BME280;36023;48.670;6.184;2022-07-18T05:47:09;99641.56;;;26.21;26.67
50125;BME280;36023;48.670;6.184;2022-07-18T05:49:35;99640.53;;;26.24;26.66
50125;BME280;36023;48.670;6.184;2022-07-18T05:52:01;99641.25;;;26.26;26.51
50125;BME280;36023;48.670;6.184;2022-07-18T05:54:27;99634.00;;;26.28;26.45
50125;BME280;36023;48.670;6.184;2022-07-18T05:56:52;99638.34;;;26.29;26.32
50125;BME280;36023;48.670;6.184;2022-07-18T05:59:19;99639.81;;;26.33;26.51
50125;BME280;36023;48.670;6.184;2022-07-18T06:01:45;99647.78;;;26.33;26.17
50125;BME280;36023;48.670;6.184;2022-07-18T06:04:12;99640.66;;;26.33;26.28
50125;BME280;36023;48.670;6.184;2022-07-18T06:06:38;99634.38;;;26.34;26.31
50125;BME280;36023;48.670;6.184;2022-07-18T06:09:05;99637.88;;;26.35;26.22
50125;BME280;36023;48.670;6.184;2022-07-18T06:11:31;99634.13;;;26.37;26.10
50125;BME280;36023;48.670;6.184;2022-07-18T06:13:57;99632.25;;;26.40;26.17
50125;BME280;36023;48.670;6.184;2022-07-18T06:16:23;99631.28;;;26.41;26.09
50125;BME280;36023;48.670;6.184;2022-07-18T06:18:49;99634.78;;;26.41;26.07
50125;BME280;36023;48.670;6.184;2022-07-18T06:21:14;99640.94;;;26.42;25.90
50125;BME280;36023;48.670;6.184;2022-07-18T06:23:40;99641.78;;;26.42;26.07
50125;BME280;36023;48.670;6.184;2022-07-18T06:26:06;99641.78;;;26.42;25.74
50125;BME280;36023;48.670;6.184;2022-07-18T06:28:32;99644.44;;;26.42;25.72
50125;BME280;36023;48.670;6.184;2022-07-18T06:30:57;99639.00;;;26.44;25.69
50125;BME280;36023;48.670;6.184;2022-07-18T06:33:23;99640.59;;;26.46;25.81
50125;BME280;36023;48.670;6.184;2022-07-18T06:35:49;99641.53;;;26.45;25.77
50125;BME280;36023;48.670;6.184;2022-07-18T06:38:16;99637.97;;;26.46;25.59
50125;BME280;36023;48.670;6.184;2022-07-18T06:40:42;99639.66;;;26.47;25.59
50125;BME280;36023;48.670;6.184;2022-07-18T06:43:08;99642.19;;;26.49;25.61
50125;BME280;36023;48.670;6.184;2022-07-18T06:45:34;99626.38;;;26.47;25.57
50125;BME280;36023;48.670;6.184;2022-07-18T06:48:00;99633.25;;;26.50;25.57
50125;BME280;36023;48.670;6.184;2022-07-18T06:50:26;99633.97;;;26.52;25.42
50125;BME280;36023;48.670;6.184;2022-07-18T06:52:52;99624.31;;;26.51;25.58
50125;BME280;36023;48.670;6.184;2022-07-18T06:55:18;99630.47;;;26.51;25.42
50125;BME280;36023;48.670;6.184;2022-07-18T06:57:44;99636.50;;;26.53;25.45
50125;BME280;36023;48.670;6.184;2022-07-18T07:00:11;99633.00;;;26.53;25.55
50125;BME280;36023;48.670;6.184;2022-07-18T07:02:47;99637.38;;;26.54;25.35
50125;BME280;36023;48.670;6.184;2022-07-18T07:05:15;99634.59;;;26.55;25.56
50125;BME280;36023;48.670;6.184;2022-07-18T07:07:42;99629.28;;;26.55;25.41
50125;BME280;36023;48.670;6.184;2022-07-18T07:10:08;99630.97;;;26.56;25.53
50125;BME280;36023;48.670;6.184;2022-07-18T07:12:42;99625.78;;;26.55;25.46
50125;BME280;36023;48.670;6.184;2022-07-18T07:15:08;99630.97;;;26.56;25.38
50125;BME280;36023;48.670;6.184;2022-07-18T07:17:35;99630.00;;;26.57;25.52
50125;BME280;36023;48.670;6.184;2022-07-18T07:20:05;99632.66;;;26.57;25.47
50125;BME280;36023;48.670;6.184;2022-07-18T07:22:33;99632.53;;;26.59;25.47
50125;BME280;36023;48.670;6.184;2022-07-18T07:25:05;99629.03;;;26.58;25.54
50125;BME280;36023;48.670;6.184;2022-07-18T07:27:31;99625.41;;;26.59;25.53
50125;BME280;36023;48.670;6.184;2022-07-18T07:29:57;99622.75;;;26.59;25.57
50125;BME280;36023;48.670;6.184;2022-07-18T07:32:22;99625.41;;;26.59;25.47
50125;BME280;36023;48.670;6.184;2022-07-18T07:34:48;99628.06;;;26.59;25.42
50125;BME280;36023;48.670;6.184;2022-07-18T07:37:13;99628.91;;;26.60;25.61
50125;BME280;36023;48.670;6.184;2022-07-18T07:39:39;99624.44;;;26.60;25.58
50125;BME280;36023;48.670;6.184;2022-07-18T07:42:05;99621.69;;;26.62;25.65
50125;BME280;36023;48.670;6.184;2022-07-18T07:44:30;99620.84;;;26.61;25.57
50125;BME280;36023;48.670;6.184;2022-07-18T07:46:57;99616.38;;;26.62;25.52
50125;BME280;36023;48.670;6.184;2022-07-18T07:49:25;99626.03;;;26.63;25.81
50125;BME280;36023;48.670;6.184;2022-07-18T07:51:51;99620.84;;;26.61;25.60
50125;BME280;36023;48.670;6.184;2022-07-18T07:54:17;99623.38;;;26.63;25.82
50125;BME280;36023;48.670;6.184;2022-07-18T07:56:42;99626.88;;;26.63;26.25
50125;BME280;36023;48.670;6.184;2022-07-18T07:59:08;99621.56;;;26.63;25.74
50125;BME280;36023;48.670;6.184;2022-07-18T08:01:34;99623.25;;;26.64;25.89
50125;BME280;36023;48.670;6.184;2022-07-18T08:03:59;99621.44;;;26.65;25.93
50125;BME280;36023;48.670;6.184;2022-07-18T08:06:25;99628.44;;;26.66;26.00
50125;BME280;36023;48.670;6.184;2022-07-18T08:08:54;99616.97;;;26.65;25.87
50125;BME280;36023;48.670;6.184;2022-07-18T08:11:20;99627.59;;;26.65;25.95
50125;BME280;36023;48.670;6.184;2022-07-18T08:13:46;99618.63;;;26.66;25.98
50125;BME280;36023;48.670;6.184;2022-07-18T08:16:12;99615.97;;;26.66;25.98
50125;BME280;36023;48.670;6.184;2022-07-18T08:18:38;99615.16;;;26.66;26.21
50125;BME280;36023;48.670;6.184;2022-07-18T08:21:03;99616.09;;;26.65;26.20
50125;BME280;36023;48.670;6.184;2022-07-18T08:23:29;99621.44;;;26.65;26.25
50125;BME280;36023;48.670;6.184;2022-07-18T08:25:55;99614.44;;;26.64;26.32
50125;BME280;36023;48.670;6.184;2022-07-18T08:28:20;99610.91;;;26.63;26.26
50125;BME280;36023;48.670;6.184;2022-07-18T08:30:46;99610.91;;;26.63;26.26
50125;BME280;36023;48.670;6.184;2022-07-18T08:33:12;99603.91;;;26.62;26.17
50125;BME280;36023;48.670;6.184;2022-07-18T08:35:37;99609.25;;;26.62;26.44
50125;BME280;36023;48.670;6.184;2022-07-18T08:38:04;99610.19;;;26.61;26.53
50125;BME280;36023;48.670;6.184;2022-07-18T08:40:30;99615.53;;;26.61;26.71
50125;BME280;36023;48.670;6.184;2022-07-18T08:42:57;99611.91;;;26.62;26.67
50125;BME280;36023;48.670;6.184;2022-07-18T08:45:24;99612.72;;;26.63;26.67
50125;BME280;36023;48.670;6.184;2022-07-18T08:47:51;99611.91;;;26.62;26.58
50125;BME280;36023;48.670;6.184;2022-07-18T08:50:17;99606.44;;;26.64;26.64
50125;BME280;36023;48.670;6.184;2022-07-18T08:52:43;99601.97;;;26.64;26.84
50125;BME280;36023;48.670;6.184;2022-07-18T08:55:10;99599.06;;;26.67;26.77
50125;BME280;36023;48.670;6.184;2022-07-18T08:57:36;99600.03;;;26.66;26.75
50125;BME280;36023;48.670;6.184;2022-07-18T09:00:05;99593.88;;;26.66;26.73
50125;BME280;36023;48.670;6.184;2022-07-18T09:02:31;99597.38;;;26.66;26.94
50125;BME280;36023;48.670;6.184;2022-07-18T09:05:00;99587.72;;;26.65;26.97
50125;BME280;36023;48.670;6.184;2022-07-18T09:07:29;99595.69;;;26.65;27.00
50125;BME280;36023;48.670;6.184;2022-07-18T09:10:00;99590.38;;;26.65;26.94
50125;BME280;36023;48.670;6.184;2022-07-18T09:12:27;99592.06;;;26.66;27.13
50125;BME280;36023;48.670;6.184;2022-07-18T09:14:53;99594.72;;;26.66;27.13
50125;BME280;36023;48.670;6.184;2022-07-18T09:17:24;99595.69;;;26.65;27.14
50125;BME280;36023;48.670;6.184;2022-07-18T09:20:00;99591.34;;;26.64;27.39
50125;BME280;36023;48.670;6.184;2022-07-18T09:22:29;99593.88;;;26.66;27.34
50125;BME280;36023;48.670;6.184;2022-07-18T09:32:37;99587.84;;;26.64;27.38
50125;BME280;36023;48.670;6.184;2022-07-18T09:35:14;99585.19;;;26.64;27.60
50125;BME280;36023;48.670;6.184;2022-07-18T09:37:40;99581.69;;;26.63;27.42
50125;BME280;36023;48.670;6.184;2022-07-18T09:40:24;99580.00;;;26.62;27.40
50125;BME280;36023;48.670;6.184;2022-07-18T09:42:56;99584.47;;;26.62;27.57
50125;BME280;36023;48.670;6.184;2022-07-18T09:45:42;99587.13;;;26.62;27.35
50125;BME280;36023;48.670;6.184;2022-07-18T09:48:10;99579.16;;;26.62;27.69
50125;BME280;36023;48.670;6.184;2022-07-18T09:50:42;99585.31;;;26.62;27.59
50125;BME280;36023;48.670;6.184;2022-07-18T09:53:10;99586.16;;;26.63;27.69
50125;BME280;36023;48.670;6.184;2022-07-18T09:55:42;99586.16;;;26.63;27.72
50125;BME280;36023;48.670;6.184;2022-07-18T09:58:08;99577.34;;;26.62;27.69
50125;BME280;36023;48.670;6.184;2022-07-18T10:00:35;99578.19;;;26.63;27.78
50125;BME280;36023;48.670;6.184;2022-07-18T10:03:03;99574.56;;;26.64;27.75
50125;BME280;36023;48.670;6.184;2022-07-18T10:05:31;99576.38;;;26.63;27.82
50125;BME280;36023;48.670;6.184;2022-07-18T10:08:01;99571.06;;;26.63;27.68
50125;BME280;36023;48.670;6.184;2022-07-18T10:10:30;99572.88;;;26.63;27.82
50125;BME280;36023;48.670;6.184;2022-07-18T10:12:59;99570.22;;;26.63;27.76
50125;BME280;36023;48.670;6.184;2022-07-18T10:15:31;99574.69;;;26.62;27.92
50125;BME280;36023;48.670;6.184;2022-07-18T10:17:58;99575.53;;;26.63;27.90
50125;BME280;36023;48.670;6.184;2022-07-18T10:20:37;99571.06;;;26.63;27.91
50125;BME280;36023;48.670;6.184;2022-07-18T10:23:15;99576.38;;;26.63;27.90
50125;BME280;36023;48.670;6.184;2022-07-18T10:25:41;99570.09;;;26.64;27.88
50125;BME280;36023;48.670;6.184;2022-07-18T10:28:10;99563.94;;;26.64;28.00
50125;BME280;36023;48.670;6.184;2022-07-18T10:30:47;99565.75;;;26.63;28.00
50125;BME280;36023;48.670;6.184;2022-07-18T10:33:37;99570.94;;;26.65;28.00
50125;BME280;36023;48.670;6.184;2022-07-18T10:38:31;99565.75;;;26.63;27.94
50125;BME280;36023;48.670;6.184;2022-07-18T10:41:07;99556.81;;;26.64;27.86
50125;BME280;36023;48.670;6.184;2022-07-18T10:43:34;99558.63;;;26.64;28.00
50125;BME280;36023;48.670;6.184;2022-07-18T10:46:02;99552.34;;;26.65;27.90
50125;BME280;36023;48.670;6.184;2022-07-18T10:51:08;99552.22;;;26.66;27.98
50125;BME280;36023;48.670;6.184;2022-07-18T10:58:55;99550.53;;;26.65;27.92
50125;BME280;36023;48.670;6.184;2022-07-18T11:01:22;99548.72;;;26.66;28.02
50125;BME280;36023;48.670;6.184;2022-07-18T11:03:49;99548.72;;;26.66;28.05
50125;BME280;36023;48.670;6.184;2022-07-18T11:06:16;99550.41;;;26.67;28.13
50125;BME280;36023;48.670;6.184;2022-07-18T11:08:41;99545.94;;;26.67;28.13
50125;BME280;36023;48.670;6.184;2022-07-18T11:11:09;99540.63;;;26.67;27.98
50125;BME280;36023;48.670;6.184;2022-07-18T11:13:38;99545.09;;;26.67;28.10
50125;BME280;36023;48.670;6.184;2022-07-18T11:23:43;99536.16;;;26.68;28.11
50125;BME280;36023;48.670;6.184;2022-07-18T11:26:14;99535.19;;;26.69;28.04
50125;BME280;36023;48.670;6.184;2022-07-18T11:28:40;99533.41;;;26.70;28.14
50125;BME280;36023;48.670;6.184;2022-07-18T11:31:09;99521.03;;;26.69;28.20
50125;BME280;36023;48.670;6.184;2022-07-18T11:33:38;99522.75;;;26.70;28.20
50125;BME280;36023;48.670;6.184;2022-07-18T11:36:08;99512.13;;;26.70;28.20
50125;BME280;36023;48.670;6.184;2022-07-18T11:38:36;99515.63;;;26.70;28.13
50125;BME280;36023;48.670;6.184;2022-07-18T11:41:02;99505.84;;;26.71;28.24
50125;BME280;36023;48.670;6.184;2022-07-18T11:43:28;99507.53;;;26.72;28.19
50125;BME280;36023;48.670;6.184;2022-07-18T11:46:11;99504.03;;;26.71;28.09
50125;BME280;36023;48.670;6.184;2022-07-18T11:48:39;99510.19;;;26.72;28.15
50125;BME280;36023;48.670;6.184;2022-07-18T11:51:13;99502.22;;;26.72;28.13
50125;BME280;36023;48.670;6.184;2022-07-18T11:53:50;99509.22;;;26.73;28.20
50125;BME280;36023;48.670;6.184;2022-07-18T11:56:17;99507.41;;;26.73;28.25
50125;BME280;36023;48.670;6.184;2022-07-18T11:58:45;99504.75;;;26.73;28.19
50125;BME280;36023;48.670;6.184;2022-07-18T12:01:11;99499.44;;;26.73;28.14
50125;BME280;36023;48.670;6.184;2022-07-18T12:03:41;99495.09;;;26.72;28.29
50125;BME280;36023;48.670;6.184;2022-07-18T12:06:21;99496.78;;;26.73;28.21
50125;BME280;36023;48.670;6.184;2022-07-18T12:08:57;99488.81;;;26.73;28.23
50125;BME280;36023;48.670;6.184;2022-07-18T12:13:55;99488.69;;;26.75;28.07
50125;BME280;36023;48.670;6.184;2022-07-18T12:19:15;99478.06;;;26.75;28.23
50125;BME280;36023;48.670;6.184;2022-07-18T12:24:18;99477.06;;;26.76;28.19
50125;BME280;36023;48.670;6.184;2022-07-18T12:26:45;99485.03;;;26.76;28.26
50125;BME280;36023;48.670;6.184;2022-07-18T12:29:10;99474.41;;;26.76;28.16
50125;BME280;36023;48.670;6.184;2022-07-18T12:31:46;99477.81;;;26.78;28.25
50125;BME280;36023;48.670;6.184;2022-07-18T12:34:16;99474.31;;;26.77;28.23
50125;BME280;36023;48.670;6.184;2022-07-18T12:36:56;99475.16;;;26.78;28.23
50125;BME280;36023;48.670;6.184;2022-07-18T12:39:32;99473.34;;;26.78;28.13
50125;BME280;36023;48.670;6.184;2022-07-18T12:42:00;99468.03;;;26.78;28.04
50125;BME280;36023;48.670;6.184;2022-07-18T12:44:26;99468.03;;;26.78;28.25
50125;BME280;36023;48.670;6.184;2022-07-18T12:46:53;99459.94;;;26.80;28.17
50125;BME280;36023;48.670;6.184;2022-07-18T12:49:21;99456.31;;;26.81;28.21
50125;BME280;36023;48.670;6.184;2022-07-18T12:51:47;99457.28;;;26.80;28.07
50125;BME280;36023;48.670;6.184;2022-07-18T12:54:16;99449.31;;;26.80;28.21
50125;BME280;36023;48.670;6.184;2022-07-18T12:56:42;99450.16;;;26.80;28.18
50125;BME280;36023;48.670;6.184;2022-07-18T12:59:08;99454.47;;;26.81;28.21
50125;BME280;36023;48.670;6.184;2022-07-18T13:01:34;99450.84;;;26.82;28.23
50125;BME280;36023;48.670;6.184;2022-07-18T13:04:00;99443.00;;;26.81;28.19
50125;BME280;36023;48.670;6.184;2022-07-18T13:06:26;99444.69;;;26.82;28.29
50125;BME280;36023;48.670;6.184;2022-07-18T13:08:52;99440.34;;;26.81;28.17
50125;BME280;36023;48.670;6.184;2022-07-18T13:11:19;99438.41;;;26.83;28.12
50125;BME280;36023;48.670;6.184;2022-07-18T13:13:45;99434.06;;;26.82;28.20
50125;BME280;36023;48.670;6.184;2022-07-18T13:16:10;99426.94;;;26.82;28.15
50125;BME280;36023;48.670;6.184;2022-07-18T13:18:36;99433.09;;;26.83;28.28
50125;BME280;36023;48.670;6.184;2022-07-18T13:21:02;99429.47;;;26.84;28.21
50125;BME280;36023;48.670;6.184;2022-07-18T13:23:27;99424.16;;;26.84;28.22
50125;BME280;36023;48.670;6.184;2022-07-18T13:25:53;99427.66;;;26.84;28.23
50125;BME280;36023;48.670;6.184;2022-07-18T13:28:18;99422.22;;;26.86;28.16
50125;BME280;36023;48.670;6.184;2022-07-18T13:30:44;99421.38;;;26.85;28.32
50125;BME280;36023;48.670;6.184;2022-07-18T13:33:10;99425.88;;;26.85;28.26
50125;BME280;36023;48.670;6.184;2022-07-18T13:35:35;99417.75;;;26.86;28.22